Time;durP1;ratioP1;P1;durP2;ratioP2;P2;SDS_P1;SDS_P2;PMS_P1;PMS_P2;Temp;Humidity;BMP_temperature;BMP_pressure;BME280_temperature;BME280_humidity;BME280_pressure;Samples;Min_cycle;Max_cycle;Signal;HPM_P1;HPM_P2
2024/01/23 00:01:33;;;;;;;11.17;2.17;;;;;9.00;100937.00;;;;4844221;29;20236;-72
2024/01/23 00:04:20;;;;;;;10.53;2.47;;;;;9.00;100930.00;;;;4876140;29;20310;-72
2024/01/23 00:07:06;;;;;;;8.50;2.57;;;;;9.00;100948.00;;;;4935497;29;20228;-72
2024/01/23 00:09:54;;;;;;;5.53;1.80;;;;;8.90;100968.00;;;;4891208;29;20224;-72
2024/01/23 00:12:40;;;;;;;11.13;2.47;;;;;8.90;100984.00;;;;4914317;29;20229;-71
2024/01/23 00:15:27;;;;;;;4.17;1.87;;;;;8.80;100967.00;;;;4881858;29;20757;-72
2024/01/23 00:18:14;;;;;;;4.50;2.23;;;;;8.80;100977.00;;;;4914560;29;20248;-71
2024/01/23 00:21:00;;;;;;;8.80;2.07;;;;;8.70;100966.00;;;;4887627;29;20753;-74
2024/01/23 00:23:46;;;;;;;5.97;2.17;;;;;8.60;100969.00;;;;4907678;28;20315;-72
2024/01/23 00:26:34;;;;;;;5.87;1.83;;;;;8.60;100981.00;;;;4919536;29;20217;-73
2024/01/23 00:29:21;;;;;;;4.37;1.37;;;;;8.60;100987.00;;;;4873885;29;20317;-72
2024/01/23 00:32:07;;;;;;;12.10;2.50;;;;;8.60;100976.00;;;;4853627;29;20282;-71
2024/01/23 00:34:54;;;;;;;7.77;1.77;;;;;8.60;100993.00;;;;4897961;28;20269;-73
2024/01/23 00:37:40;;;;;;;3.20;1.60;;;;;8.50;101002.00;;;;4916774;29;20223;-73
2024/01/23 00:40:26;;;;;;;4.27;1.80;;;;;8.40;101017.00;;;;4886661;29;20783;-73
2024/01/23 00:43:14;;;;;;;9.73;1.87;;;;;8.30;101002.00;;;;4922156;29;20713;-73
2024/01/23 00:46:00;;;;;;;7.87;1.93;;;;;8.30;101039.00;;;;4922465;28;20332;-71
2024/01/23 00:48:46;;;;;;;9.40;2.10;;;;;8.20;101016.00;;;;4936063;29;20693;-72
2024/01/23 00:51:33;;;;;;;4.33;1.80;;;;;8.20;101006.00;;;;4884914;29;20306;-73
2024/01/23 00:54:19;;;;;;;5.27;1.60;;;;;8.10;101020.00;;;;4909935;29;20996;-73
2024/01/23 00:57:06;;;;;;;8.00;2.13;;;;;8.10;101020.00;;;;4885050;29;20373;-72
2024/01/23 00:59:53;;;;;;;2.57;1.30;;;;;8.10;101027.00;;;;4889121;29;20280;-71
2024/01/23 01:02:40;;;;;;;7.53;2.57;;;;;8.10;101051.00;;;;4907993;29;20262;-72
2024/01/23 01:05:27;;;;;;;6.57;2.10;;;;;8.00;101045.00;;;;4865178;29;20237;-70
2024/01/23 01:08:13;;;;;;;16.00;2.33;;;;;8.00;101049.00;;;;4875163;28;20216;-73
2024/01/23 01:10:59;;;;;;;5.10;2.13;;;;;8.00;101072.00;;;;4894994;29;20232;-74
2024/01/23 01:13:46;;;;;;;2.50;1.60;;;;;7.90;101055.00;;;;4870790;29;20226;-71
2024/01/23 01:16:33;;;;;;;11.30;2.20;;;;;7.90;101066.00;;;;4902183;29;20218;-72
2024/01/23 01:19:19;;;;;;;3.50;2.03;;;;;7.90;101066.00;;;;4879870;29;20247;-70
2024/01/23 01:22:06;;;;;;;8.10;1.47;;;;;8.00;101069.00;;;;4879862;28;20291;-72
2024/01/23 01:24:53;;;;;;;8.30;2.80;;;;;8.00;101068.00;;;;4923003;28;20585;-71
2024/01/23 01:27:39;;;;;;;4.57;1.73;;;;;8.00;101075.00;;;;4920382;29;20287;-71
2024/01/23 01:30:29;;;;;;;7.03;1.70;;;;;8.00;101085.00;;;;4890446;29;20960;-73
2024/01/23 01:33:17;;;;;;;3.53;1.27;;;;;8.00;101093.00;;;;4919227;29;20798;-72
2024/01/23 01:36:04;;;;;;;8.67;1.87;;;;;8.00;101095.00;;;;4905028;29;20638;-72
2024/01/23 01:38:56;;;;;;;7.03;1.60;;;;;8.00;101119.00;;;;4893304;29;20236;-72
2024/01/23 01:41:42;;;;;;;9.77;2.40;;;;;7.90;101105.00;;;;4892069;29;20228;-71
2024/01/23 01:44:31;;;;;;;5.77;1.53;;;;;8.00;101112.00;;;;4911958;28;20602;-72
2024/01/23 01:47:19;;;;;;;7.70;2.27;;;;;7.90;101109.00;;;;4911885;29;20225;-69
2024/01/23 01:50:08;;;;;;;13.67;2.83;;;;;8.00;101128.00;;;;4908256;29;20283;-71
2024/01/23 01:52:54;;;;;;;7.80;2.17;;;;;8.10;101115.00;;;;4862191;29;20228;-72
2024/01/23 01:55:41;;;;;;;6.70;1.70;;;;;8.10;101125.00;;;;4893709;29;20245;-73
2024/01/23 01:58:29;;;;;;;6.33;1.23;;;;;8.10;101125.00;;;;4827603;29;20328;-72
2024/01/23 02:01:16;;;;;;;4.80;1.30;;;;;8.10;101127.00;;;;4821105;29;20286;-72
2024/01/23 02:04:03;;;;;;;7.57;1.13;;;;;8.10;101125.00;;;;4886896;28;20597;-72
2024/01/23 02:06:51;;;;;;;5.30;1.63;;;;;8.10;101131.00;;;;4916838;29;20226;-72
2024/01/23 02:09:38;;;;;;;11.27;1.67;;;;;8.20;101138.00;;;;4861205;29;20249;-73
2024/01/23 02:12:25;;;;;;;3.93;1.63;;;;;8.20;101138.00;;;;4905672;29;20576;-73
2024/01/23 02:15:11;;;;;;;4.37;2.03;;;;;8.20;101158.00;;;;4886083;29;20804;-73
2024/01/23 02:17:58;;;;;;;6.00;2.67;;;;;8.10;101152.00;;;;4874912;29;20890;-72
2024/01/23 02:20:44;;;;;;;6.33;1.80;;;;;8.20;101161.00;;;;4908928;29;20271;-72
2024/01/23 02:23:32;;;;;;;7.00;1.80;;;;;8.10;101157.00;;;;4907311;29;20637;-73
2024/01/23 02:26:18;;;;;;;7.37;1.83;;;;;8.20;101177.00;;;;4862964;29;20228;-71
2024/01/23 02:29:05;;;;;;;3.00;1.67;;;;;8.20;101173.00;;;;4876451;29;20248;-72
2024/01/23 02:31:51;;;;;;;5.17;1.83;;;;;8.20;101181.00;;;;4908254;29;20281;-72
2024/01/23 02:34:37;;;;;;;7.70;1.93;;;;;8.10;101210.00;;;;4889714;28;20252;-72
2024/01/23 02:37:23;;;;;;;6.97;1.53;;;;;8.10;101195.00;;;;4854934;29;20504;-71
2024/01/23 02:40:12;;;;;;;4.07;1.77;;;;;8.10;101216.00;;;;4851407;29;20233;-72
2024/01/23 02:42:58;;;;;;;7.27;1.97;;;;;8.10;101195.00;;;;4844397;29;20669;-72
2024/01/23 02:45:45;;;;;;;4.20;2.10;;;;;8.10;101210.00;;;;4875827;29;21017;-72
2024/01/23 02:48:31;;;;;;;14.80;1.77;;;;;8.10;101208.00;;;;4895457;29;20331;-73
2024/01/23 02:51:19;;;;;;;6.30;1.40;;;;;8.10;101225.00;;;;4935980;29;20549;-70
2024/01/23 02:54:05;;;;;;;13.63;1.67;;;;;8.00;101219.00;;;;4907073;29;20267;-71
2024/01/23 02:56:53;;;;;;;5.40;1.60;;;;;8.00;101223.00;;;;4870932;29;20238;-72
2024/01/23 02:59:39;;;;;;;9.67;1.67;;;;;8.00;101236.00;;;;4917779;29;20966;-71
2024/01/23 03:02:26;;;;;;;5.60;1.10;;;;;7.90;101232.00;;;;4909537;29;20224;-73
2024/01/23 03:05:12;;;;;;;5.67;1.77;;;;;7.80;101236.00;;;;4904725;29;20290;-72
2024/01/23 03:07:59;;;;;;;8.03;1.40;;;;;7.70;101247.00;;;;4911602;28;20231;-70
2024/01/23 03:10:45;;;;;;;8.10;1.63;;;;;7.70;101242.00;;;;4896327;28;20239;-70
2024/01/23 03:13:33;;;;;;;6.83;1.57;;;;;7.80;101241.00;;;;4872832;29;20226;-72
2024/01/23 03:16:20;;;;;;;8.77;1.33;;;;;7.70;101255.00;;;;4883133;29;20235;-72
2024/01/23 03:19:06;;;;;;;2.50;1.33;;;;;7.70;101256.00;;;;4892320;28;20365;-71
2024/01/23 03:21:53;;;;;;;7.17;2.10;;;;;7.70;101266.00;;;;4890444;28;20362;-72
2024/01/23 03:24:40;;;;;;;12.43;2.10;;;;;7.80;101272.00;;;;4888835;29;20409;-72
2024/01/23 03:27:27;;;;;;;5.90;2.20;;;;;7.80;101279.00;;;;4888375;28;20805;-73
2024/01/23 03:30:29;;;;;;;6.13;1.83;;;;;7.80;101273.00;;;;4879564;29;20219;-72
2024/01/23 03:33:15;;;;;;;7.20;2.00;;;;;7.80;101262.00;;;;4891684;29;20839;-73
2024/01/23 03:36:02;;;;;;;8.93;1.50;;;;;7.80;101301.00;;;;4899476;29;20239;-71
2024/01/23 03:38:49;;;;;;;7.87;3.00;;;;;7.90;101292.00;;;;4876030;29;20237;-72
2024/01/23 03:41:37;;;;;;;6.83;1.40;;;;;7.90;101306.00;;;;4869739;29;20270;-72
2024/01/23 03:44:23;;;;;;;4.70;1.53;;;;;7.90;101307.00;;;;4871160;29;20245;-73
2024/01/23 03:47:11;;;;;;;14.27;1.70;;;;;8.00;101311.00;;;;4912033;29;20839;-72
2024/01/23 03:49:57;;;;;;;2.60;1.23;;;;;8.00;101317.00;;;;4871230;29;20307;-73
2024/01/23 03:52:44;;;;;;;5.93;1.90;;;;;7.90;101310.00;;;;4916671;29;20216;-72
2024/01/23 03:55:30;;;;;;;6.77;1.40;;;;;7.90;101327.00;;;;4906020;28;20746;-71
2024/01/23 03:58:16;;;;;;;7.30;1.60;;;;;7.90;101334.00;;;;4867012;29;20253;-72
2024/01/23 04:01:02;;;;;;;12.10;1.67;;;;;7.90;101332.00;;;;4912823;29;20373;-73
2024/01/23 04:03:50;;;;;;;10.27;1.70;;;;;7.90;101338.00;;;;4862840;29;20299;-73
2024/01/23 04:06:36;;;;;;;2.80;1.63;;;;;7.90;101342.00;;;;4916729;29;20256;-73
2024/01/23 04:09:23;;;;;;;6.47;1.57;;;;;8.00;101355.00;;;;4882041;29;20231;-70
2024/01/23 04:12:09;;;;;;;9.70;1.87;;;;;8.00;101360.00;;;;4895294;29;20244;-73
2024/01/23 04:14:55;;;;;;;5.60;1.50;;;;;8.00;101359.00;;;;4916626;29;20255;-72
2024/01/23 04:17:42;;;;;;;2.17;1.17;;;;;7.80;101372.00;;;;4884789;29;20696;-72
2024/01/23 04:20:30;;;;;;;6.97;1.37;;;;;7.80;101368.00;;;;4886179;29;20861;-72
2024/01/23 04:23:16;;;;;;;6.57;1.93;;;;;7.80;101378.00;;;;4877866;29;20222;-69
2024/01/23 04:26:02;;;;;;;5.40;1.43;;;;;7.80;101370.00;;;;4885870;29;20306;-72
2024/01/23 04:28:49;;;;;;;4.93;1.30;;;;;7.80;101372.00;;;;4906475;29;20224;-73
2024/01/23 04:31:35;;;;;;;7.57;2.37;;;;;7.70;101385.00;;;;4871652;29;20238;-72
2024/01/23 04:34:22;;;;;;;6.27;1.70;;;;;7.70;101399.00;;;;4912778;29;20236;-73
2024/01/23 04:37:10;;;;;;;6.57;1.77;;;;;7.60;101415.00;;;;4868303;28;20333;-72
2024/01/23 04:39:56;;;;;;;6.20;1.53;;;;;7.60;101415.00;;;;4920371;29;20713;-71
2024/01/23 04:42:42;;;;;;;2.57;1.13;;;;;7.50;101407.00;;;;4911399;29;20324;-72
2024/01/23 04:45:29;;;;;;;3.03;1.93;;;;;7.40;101427.00;;;;4914118;29;20616;-73
2024/01/23 04:48:15;;;;;;;8.27;1.90;;;;;7.40;101424.00;;;;4889239;29;20710;-73
2024/01/23 04:51:02;;;;;;;8.03;2.30;;;;;7.30;101431.00;;;;4891693;29;20232;-70
2024/01/23 04:53:52;;;;;;;8.67;1.80;;;;;7.30;101435.00;;;;4940784;28;20618;-71
2024/01/23 04:56:38;;;;;;;10.17;1.53;;;;;7.30;101431.00;;;;4882924;29;20258;-73
2024/01/23 04:59:24;;;;;;;3.37;1.67;;;;;7.30;101432.00;;;;4879471;28;20225;-72
2024/01/23 05:02:11;;;;;;;8.87;2.03;;;;;7.20;101429.00;;;;4882790;29;20711;-73
2024/01/23 05:04:57;;;;;;;9.63;1.97;;;;;7.30;101433.00;;;;4887693;29;20244;-72
2024/01/23 05:07:43;;;;;;;6.33;1.40;;;;;7.30;101455.00;;;;4903445;29;20241;-72
2024/01/23 05:10:31;;;;;;;2.27;1.30;;;;;7.20;101472.00;;;;4903156;29;20775;-73
2024/01/23 05:13:17;;;;;;;4.93;1.60;;;;;7.20;101472.00;;;;4878539;29;20281;-72
2024/01/23 05:16:04;;;;;;;6.73;1.50;;;;;7.20;101470.00;;;;4904731;29;20253;-73
2024/01/23 05:18:50;;;;;;;4.87;2.30;;;;;7.10;101477.00;;;;4889948;29;20280;-71
2024/01/23 05:21:37;;;;;;;2.37;1.00;;;;;7.10;101478.00;;;;4891170;29;20754;-72
2024/01/23 05:24:25;;;;;;;6.50;2.13;;;;;7.20;101485.00;;;;4884955;29;20714;-72
2024/01/23 05:27:12;;;;;;;5.40;1.63;;;;;7.20;101484.00;;;;4910470;29;20711;-72
2024/01/23 05:29:58;;;;;;;10.73;1.97;;;;;7.20;101496.00;;;;4892001;29;20221;-71
2024/01/23 05:32:45;;;;;;;9.73;1.40;;;;;7.20;101514.00;;;;4911934;28;20288;-73
2024/01/23 05:35:31;;;;;;;6.30;1.63;;;;;7.20;101513.00;;;;4880327;28;20753;-74
2024/01/23 05:38:18;;;;;;;4.73;1.23;;;;;7.20;101519.00;;;;4878792;29;20222;-73
2024/01/23 05:41:05;;;;;;;6.33;1.50;;;;;7.20;101520.00;;;;4913946;29;20313;-73
2024/01/23 05:43:54;;;;;;;10.70;1.90;;;;;7.10;101540.00;;;;4896436;29;20271;-73
2024/01/23 05:46:41;;;;;;;8.10;2.10;;;;;7.20;101539.00;;;;4895369;29;20613;-73
2024/01/23 05:49:27;;;;;;;5.50;2.30;;;;;7.20;101548.00;;;;4889633;29;20252;-71
2024/01/23 05:52:14;;;;;;;3.43;2.07;;;;;7.10;101547.00;;;;4934701;29;20631;-72
2024/01/23 05:55:02;;;;;;;9.83;1.90;;;;;7.10;101563.00;;;;4909991;29;20234;-72
2024/01/23 05:57:48;;;;;;;5.30;1.53;;;;;7.10;101579.00;;;;4896382;28;20259;-72
2024/01/23 06:00:36;;;;;;;7.63;2.17;;;;;7.00;101591.00;;;;4911445;29;20249;-72
2024/01/23 06:03:22;;;;;;;10.40;2.30;;;;;7.00;101596.00;;;;4881944;29;20214;-72
2024/01/23 06:06:08;;;;;;;17.17;2.77;;;;;7.00;101597.00;;;;4855045;29;20246;-73
2024/01/23 06:08:55;;;;;;;4.17;1.53;;;;;7.10;101609.00;;;;4867503;29;20247;-72
2024/01/23 06:11:41;;;;;;;4.07;2.33;;;;;7.10;101612.00;;;;4862293;29;20346;-71
2024/01/23 06:14:28;;;;;;;8.57;1.90;;;;;7.10;101618.00;;;;4885974;29;20377;-73
2024/01/23 06:17:15;;;;;;;6.83;1.93;;;;;7.00;101624.00;;;;4919628;29;20219;-72
2024/01/23 06:20:04;;;;;;;13.37;3.50;;;;;7.10;101635.00;;;;4869175;28;20763;-72
2024/01/23 06:22:50;;;;;;;6.03;2.17;;;;;7.20;101634.00;;;;4913809;29;20222;-73
2024/01/23 06:25:36;;;;;;;13.93;1.93;;;;;7.10;101639.00;;;;4907203;29;20240;-74
2024/01/23 06:28:24;;;;;;;4.90;1.70;;;;;7.10;101634.00;;;;4882934;29;20667;-72
2024/01/23 06:31:10;;;;;;;6.90;1.10;;;;;7.10;101638.00;;;;4893376;29;20587;-73
2024/01/23 06:33:58;;;;;;;6.50;1.73;;;;;7.10;101654.00;;;;4913819;28;20251;-73
2024/01/23 06:36:46;;;;;;;7.77;1.67;;;;;7.00;101655.00;;;;4875053;28;20209;-73
2024/01/23 06:39:33;;;;;;;7.63;2.17;;;;;7.10;101671.00;;;;4881929;29;20775;-72
2024/01/23 06:42:19;;;;;;;3.20;1.70;;;;;7.10;101667.00;;;;4879773;29;20302;-73
2024/01/23 06:45:06;;;;;;;6.83;1.90;;;;;7.00;101680.00;;;;4896025;28;20284;-73
2024/01/23 06:47:52;;;;;;;4.87;1.47;;;;;7.10;101683.00;;;;4940706;29;20227;-73
2024/01/23 06:50:40;;;;;;;11.20;1.70;;;;;7.00;101686.00;;;;4913448;29;20212;-72
2024/01/23 06:53:26;;;;;;;4.10;2.00;;;;;7.10;101678.00;;;;4888639;29;20896;-72
2024/01/23 06:56:12;;;;;;;4.73;1.40;;;;;6.90;101682.00;;;;4919061;29;20428;-73
2024/01/23 06:58:59;;;;;;;6.43;1.67;;;;;7.00;101692.00;;;;4915003;29;20350;-72
2024/01/23 07:01:45;;;;;;;2.47;1.50;;;;;7.00;101705.00;;;;4938065;29;20222;-72
2024/01/23 07:04:32;;;;;;;14.70;2.13;;;;;7.00;101706.00;;;;4906896;29;20246;-73
2024/01/23 07:07:20;;;;;;;12.17;1.37;;;;;7.00;101705.00;;;;4888753;29;20262;-71
2024/01/23 07:10:08;;;;;;;11.33;2.03;;;;;7.00;101714.00;;;;4872072;29;20965;-72
2024/01/23 07:12:54;;;;;;;6.27;1.67;;;;;6.90;101728.00;;;;4889252;29;20217;-72
2024/01/23 07:15:40;;;;;;;7.07;2.43;;;;;6.90;101725.00;;;;4871994;29;20267;-73
2024/01/23 07:18:27;;;;;;;12.17;1.93;;;;;6.90;101720.00;;;;4849556;29;20303;-72
2024/01/23 07:21:14;;;;;;;9.10;1.80;;;;;6.90;101729.00;;;;4867110;29;20331;-72
2024/01/23 07:24:01;;;;;;;2.60;1.63;;;;;6.90;101732.00;;;;4916161;29;20379;-75
2024/01/23 07:26:48;;;;;;;7.63;2.63;;;;;7.00;101735.00;;;;4877994;29;20240;-73
2024/01/23 07:29:35;;;;;;;6.90;2.03;;;;;6.90;101740.00;;;;4914815;29;20595;-73
2024/01/23 07:32:21;;;;;;;8.77;2.00;;;;;7.00;101743.00;;;;4898452;29;20224;-72
2024/01/23 07:35:07;;;;;;;12.93;1.57;;;;;6.90;101738.00;;;;4923847;28;20273;-72
2024/01/23 07:37:53;;;;;;;7.10;1.97;;;;;6.90;101755.00;;;;4882054;29;20226;-73
2024/01/23 07:40:41;;;;;;;6.20;1.50;;;;;6.90;101756.00;;;;4923936;29;20243;-73
2024/01/23 07:43:28;;;;;;;7.27;1.87;;;;;6.90;101769.00;;;;4878071;29;20362;-73
2024/01/23 07:46:16;;;;;;;2.57;1.60;;;;;6.90;101764.00;;;;4889008;29;20262;-72
2024/01/23 07:49:02;;;;;;;4.83;1.83;;;;;6.90;101765.00;;;;4913234;29;20235;-72
2024/01/23 07:51:50;;;;;;;7.23;2.37;;;;;6.90;101785.00;;;;4889303;29;20723;-72
2024/01/23 07:54:37;;;;;;;12.57;2.27;;;;;7.00;101794.00;;;;4882905;29;20250;-73
2024/01/23 07:57:24;;;;;;;9.20;2.27;;;;;7.00;101801.00;;;;4924955;28;20690;-73
2024/01/23 08:00:12;;;;;;;8.27;1.87;;;;;7.10;101803.00;;;;4904114;29;20226;-73
2024/01/23 08:02:59;;;;;;;4.60;1.50;;;;;7.10;101810.00;;;;4879215;29;20234;-73
2024/01/23 08:05:45;;;;;;;11.43;2.00;;;;;7.20;101810.00;;;;4868590;29;20408;-73
2024/01/23 08:08:32;;;;;;;11.17;1.57;;;;;7.10;101829.00;;;;4883465;29;20225;-72
2024/01/23 08:11:20;;;;;;;9.13;2.07;;;;;7.20;101825.00;;;;4900375;29;20233;-72
2024/01/23 08:14:11;;;;;;;5.80;1.80;;;;;7.10;101830.00;;;;4886280;29;20378;-72
2024/01/23 08:16:58;;;;;;;11.03;1.60;;;;;7.10;101845.00;;;;4898540;29;20663;-73
2024/01/23 08:19:46;;;;;;;2.77;1.30;;;;;7.20;101856.00;;;;4906358;29;20218;-73
2024/01/23 08:22:33;;;;;;;5.67;1.83;;;;;7.20;101852.00;;;;4904806;29;20218;-73
2024/01/23 08:25:19;;;;;;;5.40;1.77;;;;;7.30;101861.00;;;;4918028;28;20245;-72
2024/01/23 08:28:06;;;;;;;3.77;2.17;;;;;7.20;101864.00;;;;4910817;29;20251;-71
2024/01/23 08:30:53;;;;;;;8.03;1.80;;;;;7.20;101856.00;;;;4892509;29;20279;-73
2024/01/23 08:33:43;;;;;;;6.70;1.33;;;;;7.20;101875.00;;;;4880911;28;20951;-72
2024/01/23 08:36:29;;;;;;;5.10;2.07;;;;;7.10;101875.00;;;;4872176;29;20235;-72
2024/01/23 08:39:16;;;;;;;4.27;1.87;;;;;7.10;101860.00;;;;4894355;29;20610;-70
2024/01/23 08:42:03;;;;;;;17.90;2.30;;;;;7.20;101875.00;;;;4880297;29;20226;-72
2024/01/23 08:44:50;;;;;;;10.17;1.93;;;;;7.20;101871.00;;;;4908128;29;20234;-72
2024/01/23 08:47:37;;;;;;;8.10;2.20;;;;;7.10;101870.00;;;;4917158;29;20255;-71
2024/01/23 08:50:24;;;;;;;4.53;1.73;;;;;7.10;101841.00;;;;4868046;29;20215;-72
2024/01/23 08:53:10;;;;;;;4.60;1.47;;;;;7.30;101850.00;;;;4878167;29;20234;-73
2024/01/23 08:55:56;;;;;;;11.57;2.37;;;;;7.20;101859.00;;;;4925733;29;20741;-72
2024/01/23 08:58:42;;;;;;;6.00;2.30;;;;;7.20;101873.00;;;;4903761;29;20630;-74
2024/01/23 09:01:29;;;;;;;5.57;1.70;;;;;7.20;101850.00;;;;4902974;29;20863;-74
2024/01/23 09:04:16;;;;;;;10.63;2.40;;;;;7.20;101878.00;;;;4895445;29;20286;-74
2024/01/23 09:07:03;;;;;;;9.37;2.23;;;;;7.20;101871.00;;;;4860941;28;20251;-74
2024/01/23 09:09:49;;;;;;;7.33;2.10;;;;;7.30;101872.00;;;;4904310;29;20224;-74
2024/01/23 09:12:35;;;;;;;12.80;2.40;;;;;7.30;101873.00;;;;4901598;28;20242;-73
2024/01/23 09:15:22;;;;;;;3.77;1.80;;;;;7.30;101879.00;;;;4903650;29;20247;-74
2024/01/23 09:18:08;;;;;;;6.70;2.27;;;;;7.30;101877.00;;;;4879932;29;20307;-74
2024/01/23 09:20:58;;;;;;;6.13;2.07;;;;;7.40;101902.00;;;;4910564;29;20224;-74
2024/01/23 09:23:45;;;;;;;4.37;2.17;;;;;7.30;101877.00;;;;4883862;29;20267;-74
2024/01/23 09:26:34;;;;;;;7.90;2.50;;;;;7.40;101882.00;;;;4880348;29;20238;-74
2024/01/23 09:29:21;;;;;;;6.70;2.10;;;;;7.40;101891.00;;;;4867778;29;20727;-72
2024/01/23 09:32:10;;;;;;;5.87;1.67;;;;;7.40;101894.00;;;;4916200;28;20578;-73
2024/01/23 09:34:56;;;;;;;6.53;2.53;;;;;7.50;101897.00;;;;4903258;29;20250;-74
2024/01/23 09:37:44;;;;;;;10.63;1.80;;;;;7.50;101898.00;;;;4921702;29;20910;-71
2024/01/23 09:40:31;;;;;;;6.43;1.97;;;;;7.60;101896.00;;;;4932448;29;20220;-73
2024/01/23 09:43:20;;;;;;;9.73;2.63;;;;;7.70;101901.00;;;;4857931;28;20829;-72
2024/01/23 09:46:11;;;;;;;10.23;1.87;;;;;7.70;101917.00;;;;4914402;29;20225;-72
2024/01/23 09:48:58;;;;;;;6.13;2.17;;;;;7.70;101913.00;;;;4869629;29;20255;-73
2024/01/23 09:51:47;;;;;;;7.43;2.23;;;;;7.80;101917.00;;;;4899881;29;20231;-73
2024/01/23 09:54:35;;;;;;;12.73;2.63;;;;;7.80;101927.00;;;;4869040;29;20912;-71
2024/01/23 09:57:21;;;;;;;3.73;1.63;;;;;7.80;101924.00;;;;4876071;28;20216;-72
2024/01/23 10:00:11;;;;;;;5.13;1.50;;;;;7.90;101925.00;;;;4898298;29;20569;-73
2024/01/23 10:02:58;;;;;;;5.83;1.90;;;;;7.90;101921.00;;;;4896522;29;20250;-72
2024/01/23 10:05:44;;;;;;;17.60;2.50;;;;;8.00;101929.00;;;;4874730;29;20319;-71
2024/01/23 10:08:31;;;;;;;4.03;1.47;;;;;8.20;101936.00;;;;4896939;29;20284;-73
2024/01/23 10:11:19;;;;;;;4.13;1.97;;;;;8.20;101955.00;;;;4889241;29;20559;-73
2024/01/23 10:14:07;;;;;;;16.40;2.30;;;;;8.30;101956.00;;;;4875770;29;20320;-73
2024/01/23 10:16:54;;;;;;;7.77;2.23;;;;;8.30;101956.00;;;;4871228;29;20228;-72
2024/01/23 10:19:40;;;;;;;7.73;2.63;;;;;8.40;101973.00;;;;4858074;29;20207;-73
2024/01/23 10:22:26;;;;;;;5.60;1.63;;;;;8.50;101957.00;;;;4922851;29;20223;-72
2024/01/23 10:25:19;;;;;;;8.17;2.13;;;;;8.50;101966.00;;;;4909454;29;20236;-73
2024/01/23 10:28:09;;;;;;;4.97;2.00;;;;;8.50;101962.00;;;;4877578;28;20246;-72
2024/01/23 10:30:56;;;;;;;11.03;3.00;;;;;8.60;101952.00;;;;4898094;29;20825;-72
2024/01/23 10:33:43;;;;;;;5.03;1.87;;;;;8.70;101928.00;;;;4921558;28;20224;-73
2024/01/23 10:36:29;;;;;;;5.43;1.93;;;;;8.80;101932.00;;;;4919792;29;20283;-73
2024/01/23 10:39:15;;;;;;;5.90;1.83;;;;;8.80;101945.00;;;;4921443;29;20205;-72
2024/01/23 10:42:02;;;;;;;10.67;2.27;;;;;8.90;101933.00;;;;4858646;29;20317;-74
2024/01/23 10:44:51;;;;;;;8.40;2.13;;;;;9.00;101936.00;;;;4909982;29;20333;-72
2024/01/23 10:47:38;;;;;;;6.30;2.00;;;;;9.00;101934.00;;;;4886965;28;20236;-73
2024/01/23 10:50:25;;;;;;;7.70;1.97;;;;;9.00;101949.00;;;;4838342;29;20906;-72
2024/01/23 10:53:15;;;;;;;8.93;1.90;;;;;9.10;101935.00;;;;4875388;29;20230;-73
2024/01/23 10:56:02;;;;;;;7.17;2.30;;;;;9.20;101926.00;;;;4893147;29;20885;-73
2024/01/23 10:58:56;;;;;;;3.03;1.63;;;;;9.20;101934.00;;;;4911145;29;20290;-72
2024/01/23 11:01:45;;;;;;;5.33;2.00;;;;;9.30;101914.00;;;;4907095;29;20682;-72
2024/01/23 11:04:31;;;;;;;5.03;2.30;;;;;9.20;101908.00;;;;4897669;29;20660;-73
2024/01/23 11:07:25;;;;;;;11.50;2.20;;;;;9.20;101884.00;;;;4909559;29;20231;-73
2024/01/23 11:10:21;;;;;;;9.40;1.97;;;;;9.20;101897.00;;;;4884086;29;20711;-74
2024/01/23 11:13:14;;;;;;;7.23;2.03;;;;;9.30;101911.00;;;;4879119;29;20329;-71
2024/01/23 11:16:04;;;;;;;7.27;2.37;;;;;9.30;101905.00;;;;4881776;29;20240;-72
2024/01/23 11:18:53;;;;;;;19.20;2.60;;;;;9.50;101899.00;;;;4915825;29;20229;-73
2024/01/23 11:21:40;;;;;;;9.97;2.07;;;;;9.50;101912.00;;;;4906664;29;20232;-72
2024/01/23 11:24:39;;;;;;;12.57;2.23;;;;;9.50;101906.00;;;;4891463;28;20224;-70
2024/01/23 11:27:27;;;;;;;7.67;2.10;;;;;9.60;101905.00;;;;4874230;29;20237;-73
2024/01/23 11:30:14;;;;;;;6.43;2.27;;;;;9.60;101902.00;;;;4892053;29;20228;-72
2024/01/23 11:33:22;;;;;;;8.57;2.27;;;;;9.70;101882.00;;;;4887107;29;20236;-74
2024/01/23 11:36:12;;;;;;;7.73;2.07;;;;;9.80;101883.00;;;;4877556;29;20225;-72
2024/01/23 11:39:00;;;;;;;8.97;2.30;;;;;9.80;101890.00;;;;4912451;29;20224;-73
2024/01/23 11:41:48;;;;;;;5.50;1.77;;;;;9.80;101896.00;;;;4855728;28;20279;-73
2024/01/23 11:44:34;;;;;;;8.97;2.00;;;;;9.80;101910.00;;;;4907772;29;20286;-73
2024/01/23 11:47:21;;;;;;;12.67;1.93;;;;;9.70;101894.00;;;;4893999;29;20752;-74
2024/01/23 11:50:09;;;;;;;5.60;1.83;;;;;9.70;101886.00;;;;4861896;28;20368;-72
2024/01/23 11:52:57;;;;;;;8.37;2.40;;;;;9.90;101899.00;;;;4903740;29;20231;-74
2024/01/23 11:55:44;;;;;;;6.17;1.40;;;;;10.10;101893.00;;;;4860657;29;20312;-73
2024/01/23 11:58:31;;;;;;;3.43;1.93;;;;;10.30;101884.00;;;;4883562;29;20624;-73
2024/01/23 12:01:19;;;;;;;8.17;2.27;;;;;10.10;101891.00;;;;4904462;29;20221;-72
2024/01/23 12:04:05;;;;;;;8.07;2.67;;;;;10.00;101900.00;;;;4922603;28;20917;-73
2024/01/23 12:06:52;;;;;;;5.57;1.70;;;;;10.10;101910.00;;;;4868430;29;20398;-73
2024/01/23 12:09:39;;;;;;;14.03;2.63;;;;;10.10;101898.00;;;;4913396;29;20761;-72
2024/01/23 12:12:26;;;;;;;9.83;2.23;;;;;10.20;101898.00;;;;4862323;29;20210;-74
2024/01/23 12:15:12;;;;;;;9.37;1.70;;;;;10.20;101874.00;;;;4883857;29;20236;-73
2024/01/23 12:17:59;;;;;;;12.47;1.90;;;;;10.30;101861.00;;;;4867066;28;20232;-72
2024/01/23 12:20:48;;;;;;;5.27;1.70;;;;;10.30;101865.00;;;;4911172;29;20259;-74
2024/01/23 12:23:35;;;;;;;11.47;2.17;;;;;10.20;101873.00;;;;4891964;29;21361;-74
2024/01/23 12:26:23;;;;;;;6.97;2.40;;;;;10.10;101869.00;;;;4917945;29;20224;-73
2024/01/23 12:29:10;;;;;;;5.83;2.30;;;;;10.20;101858.00;;;;4909969;29;20243;-73
2024/01/23 12:31:57;;;;;;;6.90;2.03;;;;;10.20;101876.00;;;;4879612;29;20277;-73
2024/01/23 12:34:45;;;;;;;15.57;2.20;;;;;10.10;101870.00;;;;4896655;29;20339;-73
2024/01/23 12:37:32;;;;;;;11.67;2.87;;;;;10.10;101864.00;;;;4892410;28;20677;-73
2024/01/23 12:40:20;;;;;;;5.47;1.73;;;;;10.20;101875.00;;;;4889755;28;20710;-73
2024/01/23 12:43:08;;;;;;;12.97;2.00;;;;;10.10;101878.00;;;;4911558;29;20227;-73
2024/01/23 12:45:55;;;;;;;8.47;2.07;;;;;10.10;101870.00;;;;4881900;29;20953;-73
2024/01/23 12:48:43;;;;;;;14.67;2.00;;;;;10.10;101873.00;;;;4921254;29;20364;-73
2024/01/23 12:51:30;;;;;;;12.83;2.03;;;;;10.10;101855.00;;;;4890374;29;20229;-73
2024/01/23 12:54:16;;;;;;;7.97;1.87;;;;;10.10;101848.00;;;;4861292;28;20241;-73
2024/01/23 12:57:03;;;;;;;6.43;1.73;;;;;9.90;101850.00;;;;4879691;29;20245;-72
2024/01/23 12:59:50;;;;;;;4.80;1.57;;;;;10.00;101858.00;;;;4857166;29;22195;-73
2024/01/23 13:02:37;;;;;;;7.47;2.07;;;;;10.00;101843.00;;;;4911225;29;20585;-72
2024/01/23 13:05:23;;;;;;;7.80;2.80;;;;;10.00;101850.00;;;;4910236;28;20235;-72
2024/01/23 13:08:10;;;;;;;7.80;2.23;;;;;9.90;101841.00;;;;4897794;29;20719;-73
2024/01/23 13:10:57;;;;;;;7.70;1.90;;;;;10.00;101840.00;;;;4899199;29;20224;-72
2024/01/23 13:13:47;;;;;;;8.50;2.23;;;;;10.00;101840.00;;;;4868284;29;20233;-70
2024/01/23 13:16:35;;;;;;;7.83;2.43;;;;;10.10;101848.00;;;;4921532;29;20356;-70
2024/01/23 13:19:22;;;;;;;13.83;2.03;;;;;10.00;101847.00;;;;4910682;29;20235;-72
2024/01/23 13:22:08;;;;;;;8.43;2.10;;;;;9.90;101833.00;;;;4848091;29;20215;-72
2024/01/23 13:24:55;;;;;;;11.17;2.20;;;;;9.90;101830.00;;;;4868595;29;20240;-71
2024/01/23 13:27:42;;;;;;;11.80;2.07;;;;;9.90;101819.00;;;;4898262;29;20279;-72
2024/01/23 13:30:30;;;;;;;7.40;2.13;;;;;9.80;101813.00;;;;4890664;29;20252;-72
2024/01/23 13:33:25;;;;;;;8.30;3.10;;;;;9.80;101799.00;;;;4853662;29;20776;-73
2024/01/23 13:36:12;;;;;;;13.37;2.17;;;;;9.80;101799.00;;;;4911471;29;20977;-73
2024/01/23 13:38:58;;;;;;;15.00;2.33;;;;;9.70;101797.00;;;;4912689;29;20308;-71
2024/01/23 13:41:45;;;;;;;4.23;1.13;;;;;9.80;101791.00;;;;4853783;28;20455;-72
2024/01/23 13:44:32;;;;;;;13.97;1.97;;;;;9.80;101799.00;;;;4875004;29;20666;-72
2024/01/23 13:47:18;;;;;;;7.73;2.43;;;;;9.80;101813.00;;;;4879522;29;20371;-73
2024/01/23 13:50:17;;;;;;;7.17;1.30;;;;;9.70;101799.00;;;;4874095;29;20246;-72
2024/01/23 13:53:05;;;;;;;8.20;2.30;;;;;9.70;101803.00;;;;4878836;29;20314;-73
2024/01/23 13:55:51;;;;;;;5.87;2.07;;;;;9.70;101803.00;;;;4879098;28;20245;-72